createdAt,value
2023-05-09T00:00:51.306Z,1031.00
2023-05-09T00:01:51.379Z,1037.00
2023-05-09T00:02:51.478Z,1037.00
2023-05-09T00:03:51.585Z,1038.00
2023-05-09T00:04:51.495Z,1041.00
2023-05-09T00:05:51.452Z,1029.00
2023-05-09T00:06:51.564Z,1032.00
2023-05-09T00:07:51.534Z,1029.00
2023-05-09T00:08:51.547Z,1033.00
2023-05-09T00:09:51.541Z,1024.00
2023-05-09T00:10:51.569Z,1019.00
2023-05-09T00:11:51.600Z,1025.00
2023-05-09T00:12:51.725Z,1022.00
2023-05-09T00:13:51.683Z,1025.00
2023-05-09T00:14:51.689Z,1028.00
2023-05-09T00:15:51.721Z,1034.00
2023-05-09T00:16:51.832Z,1019.00
2023-05-09T00:17:51.793Z,1008.00
2023-05-09T00:18:51.812Z,1008.00
2023-05-09T00:19:51.841Z,1013.00
2023-05-09T00:20:51.832Z,1028.00
2023-05-09T00:21:51.855Z,1014.00
2023-05-09T00:22:51.988Z,1014.00
2023-05-09T00:23:51.926Z,1010.00
2023-05-09T00:24:51.935Z,1009.00
2023-05-09T00:25:51.969Z,1026.00
2023-05-09T00:26:52.016Z,1014.00
2023-05-09T00:27:51.975Z,1015.00
2023-05-09T00:28:52.032Z,1001.00
2023-05-09T00:29:52.050Z,1008.00
2023-05-09T00:30:52.090Z,1012.00
2023-05-09T00:31:52.177Z,1008.00
2023-05-09T00:32:52.224Z,1022.00
2023-05-09T00:33:52.162Z,1017.00
2023-05-09T00:34:52.201Z,1011.00
2023-05-09T00:35:52.237Z,1000.00
2023-05-09T00:36:52.270Z,1026.00
2023-05-09T00:37:52.313Z,999.00
2023-05-09T00:38:52.364Z,1007.00
2023-05-09T00:39:52.332Z,992.00
2023-05-09T00:40:52.375Z,990.00
2023-05-09T00:41:52.386Z,991.00
2023-05-09T00:42:52.397Z,1011.00
2023-05-09T00:43:52.465Z,1006.00
2023-05-09T00:44:52.474Z,992.00
2023-05-09T00:45:52.513Z,1008.00
2023-05-09T00:46:52.502Z,987.00
2023-05-09T00:47:52.683Z,1008.00
2023-05-09T00:48:52.689Z,1008.00
2023-05-09T00:49:54.587Z,1008.00
2023-05-09T00:50:52.713Z,1008.00
2023-05-09T00:51:53.652Z,978.00
2023-05-09T00:52:52.738Z,978.00
2023-05-09T00:53:52.756Z,1004.00
2023-05-09T00:54:52.816Z,1001.00
2023-05-09T00:55:52.753Z,1002.00
2023-05-09T00:56:52.816Z,990.00
2023-05-09T00:57:52.850Z,989.00
2023-05-09T00:58:52.871Z,997.00
2023-05-09T00:59:52.966Z,996.00
2023-05-09T01:00:52.980Z,1000.00
2023-05-09T01:01:53.027Z,986.00
2023-05-09T01:02:53.192Z,975.00
2023-05-09T01:03:53.107Z,987.00
2023-05-09T01:04:53.051Z,989.00
2023-05-09T01:05:53.119Z,983.00
2023-05-09T01:06:53.125Z,979.00
2023-05-09T01:07:53.161Z,975.00
2023-05-09T01:08:53.198Z,983.00
2023-05-09T01:09:53.201Z,971.00
2023-05-09T01:10:53.337Z,981.00
2023-05-09T01:11:53.299Z,985.00
2023-05-09T01:12:53.401Z,973.00
2023-05-09T01:13:53.348Z,964.00
2023-05-09T01:14:53.360Z,962.00
2023-05-09T01:15:53.409Z,971.00
2023-05-09T01:16:53.415Z,965.00
2023-05-09T01:17:53.515Z,970.00
2023-05-09T01:18:53.486Z,969.00
2023-05-09T01:19:53.525Z,981.00
2023-05-09T01:20:53.563Z,965.00
2023-05-09T01:21:53.589Z,962.00
2023-05-09T01:22:53.596Z,965.00
2023-05-09T01:23:53.843Z,963.00
2023-05-09T01:24:53.702Z,978.00
2023-05-09T01:25:53.721Z,965.00
2023-05-09T01:26:53.789Z,967.00
2023-05-09T01:27:53.762Z,966.00
2023-05-09T01:28:53.812Z,958.00
2023-05-09T01:29:53.819Z,964.00
2023-05-09T01:30:53.943Z,969.00
2023-05-09T01:31:53.914Z,969.00
2023-05-09T01:32:53.999Z,958.00
2023-05-09T01:33:53.984Z,957.00
2023-05-09T01:34:54.006Z,957.00
2023-05-09T01:35:54.027Z,962.00
2023-05-09T01:38:13.080Z,500.00
2023-05-09T01:39:13.103Z,500.00
2023-05-09T01:40:13.073Z,500.00
2023-05-09T01:41:13.039Z,500.00
2023-05-09T01:42:13.106Z,500.00
2023-05-09T01:43:13.040Z,502.00
2023-05-09T01:44:13.135Z,500.00
2023-05-09T01:45:13.238Z,504.00
2023-05-09T01:46:13.013Z,504.00
2023-05-09T01:47:13.006Z,502.00
2023-05-09T01:48:13.013Z,505.00
2023-05-09T01:49:13.000Z,503.00
2023-05-09T01:50:12.972Z,501.00
2023-05-09T01:51:12.985Z,505.00
2023-05-09T01:52:12.985Z,506.00
2023-05-09T01:53:12.960Z,501.00
2023-05-09T01:54:12.967Z,503.00
2023-05-09T01:55:13.213Z,511.00
2023-05-09T01:56:12.963Z,502.00
2023-05-09T01:57:12.940Z,503.00
2023-05-09T01:58:13.395Z,509.00
2023-05-09T01:59:12.910Z,512.00
2023-05-09T02:00:12.928Z,505.00
2023-05-09T02:01:12.943Z,502.00
2023-05-09T02:02:12.950Z,501.00
2023-05-09T02:03:12.932Z,500.00
2023-05-09T02:04:12.906Z,502.00
2023-05-09T02:05:13.055Z,510.00
2023-05-09T02:06:12.880Z,505.00
2023-05-09T02:07:12.855Z,516.00
2023-05-09T02:08:12.905Z,506.00
2023-05-09T02:09:12.880Z,504.00
2023-05-09T02:10:12.832Z,515.00
2023-05-09T02:11:12.846Z,504.00
2023-05-09T02:12:12.836Z,504.00
2023-05-09T02:13:12.876Z,504.00
2023-05-09T02:14:12.905Z,502.00
2023-05-09T02:15:12.979Z,511.00
2023-05-09T02:16:12.978Z,508.00
2023-05-09T02:17:13.020Z,505.00
2023-05-09T02:18:12.973Z,509.00
2023-05-09T02:19:12.993Z,507.00
2023-05-09T02:20:13.217Z,514.00
2023-05-09T02:21:13.109Z,509.00
2023-05-09T02:22:13.111Z,503.00
2023-05-09T02:23:13.138Z,509.00
2023-05-09T02:24:13.175Z,505.00
2023-05-09T02:25:13.274Z,506.00
2023-05-09T02:26:13.229Z,507.00
2023-05-09T02:27:13.244Z,509.00
2023-05-09T02:28:13.291Z,507.00
2023-05-09T02:29:13.331Z,510.00
2023-05-09T02:30:13.433Z,511.00
2023-05-09T02:31:13.396Z,501.00
2023-05-09T02:32:13.524Z,508.00
2023-05-09T02:33:13.526Z,505.00
2023-05-09T02:34:13.518Z,504.00
2023-05-09T02:35:13.795Z,503.00
2023-05-09T02:36:13.620Z,502.00
2023-05-09T02:37:13.794Z,506.00
2023-05-09T02:38:15.361Z,506.00
2023-05-09T02:39:13.683Z,505.00
2023-05-09T02:40:13.742Z,507.00
2023-05-09T02:41:13.779Z,504.00
2023-05-09T02:42:13.795Z,502.00
2023-05-09T02:43:13.841Z,507.00
2023-05-09T02:44:13.875Z,506.00
2023-05-09T02:45:14.132Z,509.00
2023-05-09T02:46:14.040Z,505.00
2023-05-09T02:47:14.011Z,508.00
2023-05-09T02:48:14.033Z,503.00
2023-05-09T02:49:26.822Z,501.00
2023-05-09T02:50:15.044Z,501.00
2023-05-09T02:51:14.033Z,503.00
2023-05-09T02:52:14.442Z,504.00
2023-05-09T02:53:14.132Z,503.00
2023-05-09T02:54:14.030Z,507.00
2023-05-09T02:55:14.193Z,501.00
2023-05-09T02:56:13.999Z,506.00
2023-05-09T02:57:14.404Z,509.00
2023-05-09T02:58:14.943Z,502.00
2023-05-09T02:59:13.995Z,500.00
2023-05-09T03:00:13.963Z,503.00
2023-05-09T03:01:13.986Z,508.00
2023-05-09T03:02:14.041Z,507.00
2023-05-09T03:03:14.005Z,503.00
2023-05-09T03:04:13.962Z,506.00
2023-05-09T03:05:14.109Z,505.00
2023-05-09T03:06:14.017Z,508.00
2023-05-09T03:07:14.084Z,507.00
2023-05-09T03:08:14.162Z,502.00
2023-05-09T03:09:14.641Z,510.00
2023-05-09T03:10:14.208Z,510.00
2023-05-09T03:11:14.215Z,511.00
2023-05-09T03:12:14.265Z,505.00
2023-05-09T03:13:14.352Z,507.00
2023-05-09T03:14:14.332Z,507.00
2023-05-09T03:15:14.461Z,504.00
2023-05-09T03:16:14.478Z,503.00
2023-05-09T03:17:14.459Z,509.00
2023-05-09T03:18:15.382Z,502.00
2023-05-09T03:19:14.509Z,508.00
2023-05-09T03:20:14.548Z,505.00
2023-05-09T03:21:14.588Z,507.00
2023-05-09T03:22:14.622Z,512.00
2023-05-09T03:23:14.806Z,502.00
2023-05-09T03:24:14.816Z,504.00
2023-05-09T03:25:14.884Z,504.00
2023-05-09T03:26:14.782Z,501.00
2023-05-09T03:27:14.831Z,508.00
2023-05-09T03:28:14.846Z,508.00
2023-05-09T03:29:14.936Z,506.00
2023-05-09T03:30:14.901Z,503.00
2023-05-09T03:31:14.980Z,507.00
2023-05-09T03:32:15.337Z,506.00
2023-05-09T03:33:15.012Z,511.00
2023-05-09T03:34:15.396Z,502.00
2023-05-09T03:35:15.360Z,504.00
2023-05-09T03:36:15.135Z,509.00
2023-05-09T03:37:15.154Z,511.00
2023-05-09T03:38:15.207Z,507.00
2023-05-09T03:39:15.284Z,505.00
2023-05-09T03:40:15.254Z,513.00
2023-05-09T03:41:15.373Z,511.00
2023-05-09T03:42:16.342Z,506.00
2023-05-09T03:43:15.450Z,509.00
2023-05-09T03:44:15.400Z,501.00
2023-05-09T03:45:15.676Z,511.00
2023-05-09T03:46:15.526Z,509.00
2023-05-09T03:47:15.529Z,509.00
2023-05-09T03:48:15.547Z,510.00
2023-05-09T03:49:15.609Z,514.00
2023-05-09T03:50:15.719Z,512.00
2023-05-09T03:51:15.689Z,506.00
2023-05-09T03:52:15.929Z,507.00
2023-05-09T03:53:15.791Z,510.00
2023-05-09T03:54:15.840Z,508.00
2023-05-09T03:55:16.142Z,512.00
2023-05-09T03:56:15.912Z,510.00
2023-05-09T03:57:28.390Z,509.00
2023-05-09T03:58:15.976Z,510.00
2023-05-09T04:00:50.730Z,500.00
2023-05-09T04:02:09.759Z,500.00
2023-05-09T04:02:54.030Z,500.00
2023-05-09T04:04:04.538Z,500.00
2023-05-09T04:04:53.976Z,500.00
2023-05-09T04:06:05.109Z,500.00
2023-05-09T04:06:53.947Z,500.00
2023-05-09T04:08:07.784Z,500.00
2023-05-09T04:08:53.979Z,500.00
2023-05-09T04:10:09.031Z,500.00
2023-05-09T04:11:06.025Z,500.00
2023-05-09T04:11:53.901Z,500.00
2023-05-09T04:14:27.209Z,500.00
2023-05-09T04:15:27.571Z,500.00
2023-05-09T04:16:13.208Z,500.00
2023-05-09T04:17:13.256Z,500.00
2023-05-09T04:18:13.257Z,500.00
2023-05-09T04:19:26.537Z,500.00
2023-05-09T04:20:29.070Z,500.00
2023-05-09T04:21:32.881Z,500.00
2023-05-09T04:22:33.002Z,500.00
2023-05-09T04:23:32.597Z,500.00
2023-05-09T04:24:32.407Z,500.00
2023-05-09T04:25:32.308Z,500.00
2023-05-09T04:26:32.379Z,499.00
2023-05-09T04:27:32.580Z,504.00
2023-05-09T04:28:32.362Z,500.00
2023-05-09T04:29:32.372Z,506.00
2023-05-09T04:30:32.331Z,510.00
2023-05-09T04:31:32.434Z,502.00
2023-05-09T04:32:32.311Z,500.00
2023-05-09T04:33:32.356Z,509.00
2023-05-09T04:34:32.288Z,505.00
2023-05-09T04:35:32.289Z,504.00
2023-05-09T04:36:32.291Z,500.00
2023-05-09T04:37:32.674Z,511.00
2023-05-09T04:38:32.274Z,504.00
2023-05-09T04:39:32.378Z,503.00
2023-05-09T04:40:32.274Z,502.00
2023-05-09T04:41:39.127Z,507.00
2023-05-09T04:42:32.200Z,508.00
2023-05-09T04:43:32.179Z,508.00
2023-05-09T04:44:32.194Z,508.00
2023-05-09T04:45:32.232Z,508.00
2023-05-09T04:46:32.205Z,509.00
2023-05-09T04:47:32.417Z,510.00
2023-05-09T04:48:32.190Z,503.00
2023-05-09T04:49:32.225Z,502.00
2023-05-09T04:50:32.280Z,503.00
2023-05-09T04:51:32.245Z,511.00
2023-05-09T04:52:32.183Z,502.00
2023-05-09T04:53:32.245Z,511.00
2023-05-09T04:54:32.234Z,507.00
2023-05-09T04:55:32.272Z,500.00
2023-05-09T04:56:32.287Z,507.00
2023-05-09T04:57:32.431Z,504.00
2023-05-09T04:58:32.804Z,502.00
2023-05-09T04:59:32.416Z,505.00
2023-05-09T05:00:32.448Z,509.00
2023-05-09T05:01:33.585Z,505.00
2023-05-09T05:02:37.446Z,506.00
2023-05-09T05:03:32.547Z,507.00
2023-05-09T05:04:32.774Z,507.00
2023-05-09T05:05:36.011Z,505.00
2023-05-09T05:06:32.801Z,507.00
2023-05-09T05:07:32.525Z,507.00
2023-05-09T05:08:32.504Z,510.00
2023-05-09T05:09:32.578Z,512.00
2023-05-09T05:10:32.476Z,503.00
2023-05-09T05:11:32.546Z,509.00
2023-05-09T05:12:32.669Z,509.00
2023-05-09T05:13:32.700Z,505.00
2023-05-09T05:14:33.565Z,506.00
2023-05-09T05:15:32.840Z,500.00
2023-05-09T05:16:32.659Z,511.00
2023-05-09T05:17:32.576Z,504.00
2023-05-09T05:18:32.621Z,509.00
2023-05-09T05:19:34.260Z,505.00
2023-05-09T05:20:33.840Z,511.00
2023-05-09T05:21:32.451Z,508.00
2023-05-09T05:22:33.749Z,509.00
2023-05-09T05:23:32.792Z,504.00
2023-05-09T05:24:32.693Z,505.00
2023-05-09T05:25:33.624Z,506.00
2023-05-09T05:26:33.717Z,504.00
2023-05-09T05:27:36.439Z,506.00
2023-05-09T05:28:37.374Z,507.00
2023-05-09T05:29:33.386Z,507.00
2023-05-09T05:30:38.203Z,508.00
2023-05-09T05:31:36.908Z,507.00
2023-05-09T05:32:33.683Z,508.00
2023-05-09T05:33:32.834Z,512.00
2023-05-09T05:34:33.214Z,511.00
2023-05-09T05:35:34.577Z,516.00
2023-05-09T05:36:32.693Z,524.00
2023-05-09T05:37:33.836Z,526.00
2023-05-09T05:38:33.813Z,522.00
2023-05-09T05:39:33.868Z,527.00
2023-05-09T05:40:32.710Z,528.00
2023-05-09T05:41:32.545Z,536.00
2023-05-09T05:42:36.995Z,538.00
2023-05-09T05:43:34.090Z,538.00
2023-05-09T05:44:33.618Z,540.00
2023-05-09T05:45:33.074Z,543.00
2023-05-09T05:46:32.644Z,543.00
2023-05-09T05:47:33.825Z,551.00
2023-05-09T05:48:32.696Z,562.00
2023-05-09T05:49:32.564Z,559.00
2023-05-09T05:50:32.574Z,569.00
2023-05-09T05:51:32.637Z,565.00
2023-05-09T05:52:32.541Z,570.00
2023-05-09T05:53:32.868Z,580.00
2023-05-09T05:54:32.570Z,586.00
2023-05-09T05:55:32.539Z,595.00
2023-05-09T05:56:32.559Z,595.00
2023-05-09T05:57:32.596Z,588.00
2023-05-09T05:58:33.690Z,590.00
2023-05-09T05:59:33.466Z,597.00
2023-05-09T06:00:33.781Z,603.00
2023-05-09T06:01:33.094Z,606.00
2023-05-09T06:02:33.816Z,611.00
2023-05-09T06:03:32.574Z,611.00
2023-05-09T06:04:32.532Z,611.00
2023-05-09T06:05:32.551Z,619.00
2023-05-09T06:06:32.512Z,630.00
2023-05-09T06:07:32.525Z,631.00
2023-05-09T06:08:32.515Z,628.00
2023-05-09T06:09:32.391Z,633.00
2023-05-09T06:10:32.650Z,639.00
2023-05-09T06:11:32.421Z,640.00
2023-05-09T06:12:32.474Z,648.00
2023-05-09T06:13:32.663Z,649.00
2023-05-09T06:14:32.539Z,656.00
2023-05-09T06:15:32.705Z,661.00
2023-05-09T06:16:32.742Z,659.00
2023-05-09T06:17:32.793Z,665.00
2023-05-09T06:18:32.811Z,666.00
2023-05-09T06:19:32.910Z,664.00
2023-05-09T06:20:35.422Z,679.00
2023-05-09T06:21:32.854Z,698.00
2023-05-09T06:22:33.007Z,704.00
2023-05-09T06:23:32.901Z,697.00
2023-05-09T06:24:36.126Z,724.00
2023-05-09T06:25:32.870Z,725.00
2023-05-09T06:26:32.873Z,725.00
2023-05-09T06:27:33.081Z,724.00
2023-05-09T06:28:32.846Z,665.00
2023-05-09T06:29:32.993Z,714.00
2023-05-09T06:30:36.607Z,715.00
2023-05-09T06:31:41.448Z,724.00
2023-05-09T06:32:33.730Z,726.00
2023-05-09T06:33:40.229Z,731.00
2023-05-09T06:34:33.653Z,727.00
2023-05-09T06:35:34.247Z,732.00
2023-05-09T06:36:42.467Z,735.00
2023-05-09T06:37:32.768Z,728.00
2023-05-09T06:38:33.062Z,733.00
2023-05-09T06:39:33.057Z,742.00
2023-05-09T06:40:32.751Z,761.00
2023-05-09T06:41:32.709Z,760.00
2023-05-09T06:42:32.805Z,776.00
2023-05-09T06:43:32.790Z,766.00
2023-05-09T06:44:33.616Z,765.00
2023-05-09T06:45:32.811Z,758.00
2023-05-09T06:46:32.818Z,760.00
2023-05-09T06:47:32.942Z,781.00
2023-05-09T06:48:33.376Z,775.00
2023-05-09T06:49:32.699Z,783.00
2023-05-09T06:50:33.005Z,793.00
2023-05-09T06:51:32.679Z,778.00
2023-05-09T06:52:33.666Z,789.00
2023-05-09T06:53:33.123Z,797.00
2023-05-09T06:54:32.691Z,814.00
2023-05-09T06:55:32.621Z,794.00
2023-05-09T06:56:33.563Z,803.00
2023-05-09T06:57:32.738Z,815.00
2023-05-09T06:58:33.321Z,813.00
2023-05-09T06:59:32.605Z,817.00
2023-05-09T07:00:32.737Z,823.00
2023-05-09T07:01:32.728Z,814.00
2023-05-09T07:02:32.664Z,831.00
2023-05-09T07:03:32.623Z,825.00
2023-05-09T07:04:32.784Z,826.00
2023-05-09T07:05:32.634Z,850.00
2023-05-09T07:06:32.566Z,855.00
2023-05-09T07:07:32.616Z,878.00
2023-05-09T07:08:32.542Z,889.00
2023-05-09T07:09:32.547Z,964.00
2023-05-09T07:10:32.526Z,934.00
2023-05-09T07:11:32.727Z,944.00
2023-05-09T07:12:32.495Z,947.00
2023-05-09T07:13:32.513Z,960.00
2023-05-09T07:14:32.630Z,954.00
2023-05-09T07:15:41.152Z,1003.00
2023-05-09T07:16:34.644Z,1005.00
2023-05-09T07:17:32.589Z,1005.00
2023-05-09T07:18:32.460Z,1011.00
2023-05-09T07:19:32.641Z,1024.00
2023-05-09T07:20:32.462Z,1038.00
2023-05-09T07:21:32.441Z,1052.00
2023-05-09T07:22:34.134Z,1069.00
2023-05-09T07:23:32.442Z,1070.00
2023-05-09T07:24:32.648Z,1077.00
2023-05-09T07:25:32.435Z,1090.00
2023-05-09T07:26:32.430Z,1126.00
2023-05-09T07:27:32.438Z,1141.00
2023-05-09T07:28:32.428Z,1142.00
2023-05-09T07:29:32.418Z,1158.00
2023-05-09T07:30:32.434Z,1168.00
2023-05-09T07:31:33.126Z,1189.00
2023-05-09T07:32:32.465Z,1189.00
2023-05-09T07:33:32.711Z,1191.00
2023-05-09T07:34:32.640Z,1199.00
2023-05-09T07:35:32.348Z,1194.00
2023-05-09T07:36:34.756Z,1202.00
2023-05-09T07:37:32.331Z,1219.00
2023-05-09T07:38:32.615Z,1212.00
2023-05-09T07:39:32.772Z,1195.00
2023-05-09T07:40:32.300Z,1204.00
2023-05-09T07:41:32.297Z,1181.00
2023-05-09T07:42:32.312Z,1192.00
2023-05-09T07:43:32.282Z,1185.00
2023-05-09T07:44:32.287Z,1202.00
2023-05-09T07:45:32.333Z,1197.00
2023-05-09T07:46:32.268Z,1183.00
2023-05-09T07:47:32.300Z,1186.00
2023-05-09T07:48:32.283Z,1172.00
2023-05-09T07:49:32.318Z,1169.00
2023-05-09T07:50:32.212Z,1110.00
2023-05-09T07:51:32.211Z,666.00
2023-05-09T07:52:32.193Z,547.00
2023-05-09T07:53:32.214Z,507.00
2023-05-09T07:54:32.673Z,509.00
2023-05-09T07:55:32.198Z,566.00
2023-05-09T07:56:32.178Z,598.00
2023-05-09T07:57:32.192Z,626.00
2023-05-09T07:58:32.153Z,647.00
2023-05-09T07:59:32.712Z,653.00
2023-05-09T08:00:32.187Z,664.00
2023-05-09T08:01:32.210Z,671.00
2023-05-09T08:02:32.300Z,699.00
2023-05-09T08:03:32.217Z,693.00
2023-05-09T08:04:32.312Z,711.00
2023-05-09T08:05:32.200Z,732.00
2023-05-09T08:06:32.122Z,732.00
2023-05-09T08:07:32.107Z,773.00
2023-05-09T08:08:32.147Z,780.00
2023-05-09T08:09:32.295Z,781.00
2023-05-09T08:10:32.137Z,777.00
2023-05-09T08:11:32.112Z,800.00
2023-05-09T08:12:32.056Z,815.00
2023-05-09T08:13:32.133Z,803.00
2023-05-09T08:14:32.137Z,781.00
2023-05-09T08:15:32.042Z,773.00
2023-05-09T08:16:32.251Z,753.00
2023-05-09T08:17:32.062Z,745.00
2023-05-09T08:18:32.677Z,725.00
2023-05-09T08:19:32.002Z,741.00
2023-05-09T08:20:33.024Z,722.00
2023-05-09T08:21:32.074Z,745.00
2023-05-09T08:22:32.093Z,725.00
2023-05-09T08:23:32.719Z,747.00
2023-05-09T08:24:31.994Z,753.00
2023-05-09T08:25:31.973Z,768.00
2023-05-09T08:26:31.953Z,804.00
2023-05-09T08:27:31.964Z,806.00
2023-05-09T08:28:31.949Z,809.00
2023-05-09T08:29:32.471Z,810.00
2023-05-09T08:30:31.953Z,815.00
2023-05-09T08:31:32.027Z,819.00
2023-05-09T08:32:31.979Z,825.00
2023-05-09T08:33:31.926Z,811.00
2023-05-09T08:34:31.895Z,830.00
2023-05-09T08:35:31.914Z,824.00
2023-05-09T08:36:34.767Z,824.00
2023-05-09T08:37:31.971Z,833.00
2023-05-09T08:38:31.940Z,816.00
2023-05-09T08:39:32.195Z,825.00
2023-05-09T08:40:31.918Z,843.00
2023-05-09T08:41:31.901Z,860.00
2023-05-09T08:42:31.903Z,855.00
2023-05-09T08:43:32.207Z,838.00
2023-05-09T08:44:32.001Z,844.00
2023-05-09T08:45:31.818Z,842.00
2023-05-09T08:46:31.939Z,858.00
2023-05-09T08:47:31.870Z,863.00
2023-05-09T08:48:34.067Z,840.00
2023-05-09T08:49:31.897Z,842.00
2023-05-09T08:50:31.809Z,843.00
2023-05-09T08:51:31.790Z,842.00
2023-05-09T08:52:31.860Z,845.00
2023-05-09T08:53:31.772Z,850.00
2023-05-09T08:54:32.653Z,839.00
2023-05-09T08:55:31.822Z,823.00
2023-05-09T08:56:31.738Z,805.00
2023-05-09T08:57:31.762Z,788.00
2023-05-09T08:58:31.711Z,649.00
2023-05-09T08:59:32.449Z,584.00
2023-05-09T09:00:31.742Z,570.00
2023-05-09T09:01:31.760Z,613.00
2023-05-09T09:02:32.028Z,586.00
2023-05-09T09:03:31.684Z,560.00
2023-05-09T09:04:32.713Z,500.00
2023-05-09T09:06:31.664Z,503.00
2023-05-09T09:07:31.660Z,477.00
2023-05-09T09:08:31.742Z,455.00
2023-05-09T09:09:31.637Z,459.00
2023-05-09T09:10:31.661Z,488.00
2023-05-09T09:11:31.685Z,500.00
2023-05-09T09:12:31.679Z,500.00
2023-05-09T09:13:31.690Z,500.00
2023-05-09T09:14:31.650Z,512.00
2023-05-09T09:15:31.604Z,512.00
2023-05-09T09:16:31.637Z,500.00
2023-05-09T09:17:31.604Z,500.00
2023-05-09T09:18:31.637Z,508.00
2023-05-09T09:19:31.616Z,535.00
2023-05-09T09:20:31.573Z,521.00
2023-05-09T09:21:31.593Z,504.00
2023-05-09T09:22:31.591Z,543.00
2023-05-09T09:23:31.558Z,571.00
2023-05-09T09:24:31.757Z,581.00
2023-05-09T09:25:31.527Z,548.00
2023-05-09T09:26:31.545Z,602.00
2023-05-09T09:27:31.518Z,652.00
2023-05-09T09:28:32.209Z,658.00
2023-05-09T09:29:31.701Z,616.00
2023-05-09T09:30:31.541Z,624.00
2023-05-09T09:31:31.703Z,619.00
2023-05-09T09:32:31.540Z,622.00
2023-05-09T09:33:31.597Z,620.00
2023-05-09T09:34:31.677Z,609.00
2023-05-09T09:35:31.517Z,631.00
2023-05-09T09:36:31.534Z,633.00
2023-05-09T09:37:31.456Z,625.00
2023-05-09T09:38:31.556Z,625.00
2023-05-09T09:39:31.731Z,628.00
2023-05-09T09:40:31.408Z,636.00
2023-05-09T09:41:31.441Z,654.00
2023-05-09T09:42:31.465Z,686.00
2023-05-09T09:43:31.394Z,641.00
2023-05-09T09:44:31.682Z,614.00
2023-05-09T09:45:31.424Z,612.00
2023-05-09T09:46:31.507Z,596.00
2023-05-09T09:47:31.480Z,618.00
2023-05-09T09:48:31.683Z,625.00
2023-05-09T09:49:31.730Z,637.00
2023-05-09T09:50:31.361Z,640.00
2023-05-09T09:51:31.350Z,637.00
2023-05-09T09:52:31.334Z,660.00
2023-05-09T09:53:31.356Z,675.00
2023-05-09T09:54:31.667Z,627.00
2023-05-09T09:55:31.354Z,647.00
2023-05-09T09:56:31.384Z,630.00
2023-05-09T09:57:31.352Z,628.00
2023-05-09T09:58:31.329Z,648.00
2023-05-09T09:59:31.328Z,598.00
2023-05-09T10:00:31.283Z,570.00
2023-05-09T10:01:31.372Z,559.00
2023-05-09T10:02:31.327Z,564.00
2023-05-09T10:03:31.326Z,579.00
2023-05-09T10:04:31.667Z,565.00
2023-05-09T10:05:31.326Z,560.00
2023-05-09T10:06:31.312Z,592.00
2023-05-09T10:07:31.410Z,537.00
2023-05-09T10:08:31.430Z,505.00
2023-05-09T10:09:31.692Z,507.00
2023-05-09T10:10:31.437Z,532.00
2023-05-09T10:11:31.459Z,530.00
2023-05-09T10:12:31.575Z,540.00
2023-05-09T10:13:31.525Z,498.00
2023-05-09T10:14:32.924Z,520.00
2023-05-09T10:15:41.379Z,500.00
2023-05-09T10:16:43.647Z,482.00
2023-05-09T10:17:33.182Z,500.00
2023-05-09T10:18:31.883Z,501.00
2023-05-09T10:19:31.688Z,508.00
2023-05-09T10:20:31.631Z,521.00
2023-05-09T10:21:31.608Z,513.00
2023-05-09T10:22:31.517Z,530.00
2023-05-09T10:23:31.481Z,500.00
2023-05-09T10:24:31.678Z,527.00
2023-05-09T10:25:31.459Z,511.00
2023-05-09T10:26:31.478Z,544.00
2023-05-09T10:27:31.458Z,569.00
2023-05-09T10:28:32.520Z,596.00
2023-05-09T10:29:31.500Z,614.00
2023-05-09T10:30:32.994Z,645.00
2023-05-09T10:31:31.626Z,600.00
2023-05-09T10:32:31.667Z,593.00
2023-05-09T10:33:31.653Z,596.00
2023-05-09T10:34:32.218Z,559.00
2023-05-09T10:35:31.738Z,494.00
2023-05-09T10:36:31.794Z,539.00
2023-05-09T10:37:33.538Z,565.00
2023-05-09T10:38:31.849Z,584.00
2023-05-09T10:39:31.972Z,609.00
2023-05-09T10:40:31.988Z,579.00
2023-05-09T10:41:31.943Z,609.00
2023-05-09T10:42:31.999Z,602.00
2023-05-09T10:43:33.707Z,624.00
2023-05-09T10:44:32.311Z,606.00
2023-05-09T10:45:32.007Z,588.00
2023-05-09T10:46:33.275Z,624.00
2023-05-09T10:47:33.736Z,622.00
2023-05-09T10:48:31.965Z,504.00
2023-05-09T10:49:34.305Z,459.00
2023-05-09T10:50:31.990Z,459.00
2023-05-09T10:51:31.942Z,465.00
2023-05-09T10:52:31.964Z,473.00
2023-05-09T10:53:31.943Z,489.00
2023-05-09T10:54:32.216Z,525.00
2023-05-09T10:55:31.935Z,509.00
2023-05-09T10:56:32.049Z,544.00
2023-05-09T10:57:31.915Z,542.00
2023-05-09T10:58:32.103Z,506.00
2023-05-09T10:59:32.240Z,503.00
2023-05-09T11:00:32.967Z,505.00
2023-05-09T11:01:31.976Z,532.00
2023-05-09T11:02:31.920Z,517.00
2023-05-09T11:03:31.961Z,516.00
2023-05-09T11:04:32.715Z,533.00
2023-05-09T11:05:31.833Z,556.00
2023-05-09T11:06:31.894Z,552.00
2023-05-09T11:07:31.831Z,502.00
2023-05-09T11:08:31.837Z,506.00
2023-05-09T11:09:31.820Z,565.00
2023-05-09T11:10:31.848Z,574.00
2023-05-09T11:11:31.814Z,509.00
2023-05-09T11:12:31.836Z,406.00
2023-05-09T11:13:31.995Z,446.00
2023-05-09T11:14:32.427Z,441.00
2023-05-09T11:15:32.259Z,470.00
2023-05-09T11:16:31.876Z,543.00
2023-05-09T11:17:31.790Z,546.00
2023-05-09T11:18:31.751Z,501.00
2023-05-09T11:19:32.227Z,542.00
2023-05-09T11:20:31.726Z,582.00
2023-05-09T11:21:31.709Z,617.00
2023-05-09T11:22:31.708Z,579.00
2023-05-09T11:23:31.735Z,571.00
2023-05-09T11:24:31.720Z,584.00
2023-05-09T11:25:31.676Z,607.00
2023-05-09T11:26:31.711Z,656.00
2023-05-09T11:27:31.692Z,752.00
2023-05-09T11:28:31.671Z,764.00
2023-05-09T11:29:31.721Z,842.00
2023-05-09T11:30:31.684Z,715.00
2023-05-09T11:31:31.686Z,823.00
2023-05-09T11:32:31.808Z,799.00
2023-05-09T11:33:31.690Z,852.00
2023-05-09T11:34:31.760Z,812.00
2023-05-09T11:35:31.757Z,892.00
2023-05-09T11:36:31.819Z,689.00
2023-05-09T11:37:31.886Z,665.00
2023-05-09T11:38:31.866Z,811.00
2023-05-09T11:39:31.962Z,692.00
2023-05-09T11:40:32.014Z,746.00
2023-05-09T11:41:32.057Z,710.00
2023-05-09T11:42:32.054Z,835.00
2023-05-09T11:43:32.107Z,747.00
2023-05-09T11:44:32.217Z,734.00
2023-05-09T11:45:32.333Z,664.00
2023-05-09T11:46:32.361Z,633.00
2023-05-09T11:47:32.332Z,716.00
2023-05-09T11:48:32.411Z,867.00
2023-05-09T11:49:32.421Z,979.00
2023-05-09T11:50:32.458Z,998.00
2023-05-09T11:51:32.472Z,1022.00
2023-05-09T11:52:32.550Z,1064.00
2023-05-09T11:53:32.568Z,1136.00
2023-05-09T11:54:32.639Z,1138.00
2023-05-09T11:55:32.734Z,1174.00
2023-05-09T11:56:32.660Z,1224.00
2023-05-09T11:57:32.697Z,1334.00
2023-05-09T11:58:32.724Z,1438.00
2023-05-09T11:59:32.776Z,1462.00
2023-05-09T12:00:32.807Z,1460.00
2023-05-09T12:01:32.892Z,1553.00
2023-05-09T12:02:32.973Z,1458.00
2023-05-09T12:03:32.961Z,1301.00
2023-05-09T12:04:33.071Z,1220.00
2023-05-09T12:05:32.997Z,1273.00
2023-05-09T12:06:33.058Z,1324.00
2023-05-09T12:07:33.116Z,1300.00
2023-05-09T12:08:33.143Z,1318.00
2023-05-09T12:09:33.216Z,1327.00
2023-05-09T12:10:33.268Z,1389.00
2023-05-09T12:11:33.271Z,1408.00
2023-05-09T12:12:33.433Z,1377.00
2023-05-09T12:13:33.470Z,1396.00
2023-05-09T12:14:33.392Z,1450.00
2023-05-09T12:15:33.499Z,1533.00
2023-05-09T12:16:33.598Z,1537.00
2023-05-09T12:17:33.619Z,1553.00
2023-05-09T12:18:33.672Z,1569.00
2023-05-09T12:19:33.652Z,1599.00
2023-05-09T12:20:34.069Z,1602.00
2023-05-09T12:21:34.686Z,1604.00
2023-05-09T12:22:33.752Z,1621.00
2023-05-09T12:23:33.788Z,1620.00
2023-05-09T12:24:33.813Z,1633.00
2023-05-09T12:25:33.832Z,1620.00
2023-05-09T12:26:33.875Z,1618.00
2023-05-09T12:27:33.914Z,1658.00
2023-05-09T12:28:33.963Z,1665.00
2023-05-09T12:29:34.015Z,1637.00
2023-05-09T12:30:34.231Z,1597.00